Time;durP1;ratioP1;P1;durP2;ratioP2;P2;SDS_P1;SDS_P2;PMS_P1;PMS_P2;Temp;Humidity;BMP_temperature;BMP_pressure;BME280_temperature;BME280_humidity;BME280_pressure;Samples;Min_cycle;Max_cycle;Signal;HPM_P1;HPM_P2
2023/06/05 00:02:12;;;;;;;5.50;5.00;;;19.90;99.90;;;;;;6305239;22;20169;-65
2023/06/05 00:04:39;;;;;;;7.75;5.40;;;19.90;99.90;;;;;;6304926;22;20012;-65
2023/06/05 00:07:05;;;;;;;6.85;5.20;;;19.90;99.90;;;;;;6304635;22;20003;-64
2023/06/05 00:09:31;;;;;;;5.50;5.00;;;19.90;99.90;;;;;;6305403;22;20014;-64
2023/06/05 00:11:57;;;;;;;5.55;5.05;;;19.90;99.90;;;;;;6305398;22;20003;-65
2023/06/05 00:14:22;;;;;;;6.72;5.25;;;19.90;99.90;;;;;;6305173;22;20007;-65
2023/06/05 00:16:51;;;;;;;6.07;4.88;;;19.80;99.90;;;;;;6277778;22;20003;-65
2023/06/05 00:19:17;;;;;;;5.90;5.30;;;19.90;99.90;;;;;;6304865;22;20068;-65
2023/06/05 00:21:42;;;;;;;6.10;5.50;;;19.70;99.90;;;;;;6304418;22;20003;-64
2023/06/05 00:24:08;;;;;;;5.60;5.10;;;19.60;99.90;;;;;;6304773;22;20003;-65
2023/06/05 00:26:34;;;;;;;6.25;5.30;;;19.60;99.90;;;;;;6305499;22;20069;-65
2023/06/05 00:28:59;;;;;;;5.93;5.40;;;19.60;99.90;;;;;;6304885;22;20000;-65
2023/06/05 00:31:25;;;;;;;8.93;6.03;;;19.60;99.90;;;;;;6304966;22;20046;-65
2023/06/05 00:33:51;;;;;;;5.60;5.20;;;19.50;99.90;;;;;;6305425;22;20407;-65
2023/06/05 00:36:18;;;;;;;6.07;5.40;;;19.50;99.90;;;;;;6304691;22;20011;-65
2023/06/05 00:38:45;;;;;;;5.82;5.20;;;19.50;99.90;;;;;;6305136;22;20019;-64
2023/06/05 00:41:10;;;;;;;6.03;5.43;;;19.50;99.90;;;;;;6304836;22;19995;-64
2023/06/05 00:43:37;;;;;;;6.45;5.85;;;19.50;99.90;;;;;;6304904;22;20010;-65
2023/06/05 00:46:04;;;;;;;6.32;5.68;;;19.50;99.90;;;;;;6305023;22;20019;-65
2023/06/05 00:48:33;;;;;;;5.80;5.30;;;19.40;99.90;;;;;;6305089;22;20489;-64
2023/06/05 00:50:59;;;;;;;6.22;5.70;;;19.40;99.90;;;;;;6304839;22;20025;-65
2023/06/05 00:53:26;;;;;;;6.30;5.70;;;19.40;99.90;;;;;;6305115;22;20429;-64
2023/06/05 00:55:52;;;;;;;6.18;5.57;;;19.40;99.90;;;;;;6304912;22;19999;-65
2023/06/05 00:58:18;;;;;;;6.40;5.80;;;19.40;99.90;;;;;;6304829;22;20056;-65
2023/06/05 01:00:44;;;;;;;5.93;5.50;;;19.40;99.90;;;;;;6306571;22;20003;-64
2023/06/05 01:03:11;;;;;;;6.45;5.72;;;19.30;99.90;;;;;;6306789;22;19999;-65
2023/06/05 01:05:37;;;;;;;5.78;5.18;;;19.30;99.90;;;;;;6306802;22;20008;-63
2023/06/05 01:08:04;;;;;;;6.65;6.10;;;19.30;99.90;;;;;;6306551;22;20383;-65
2023/06/05 01:10:31;;;;;;;6.40;5.80;;;19.30;99.90;;;;;;6307172;22;20003;-64
2023/06/05 01:13:14;;;;;;;6.43;5.93;;;19.20;99.90;;;;;;6306855;22;20310;-65
2023/06/05 01:15:40;;;;;;;6.65;6.15;;;19.20;99.90;;;;;;6307056;22;20066;-64
2023/06/05 01:18:06;;;;;;;6.28;5.68;;;19.20;99.90;;;;;;6307039;22;20003;-65
2023/06/05 01:20:34;;;;;;;6.35;5.78;;;19.20;99.90;;;;;;6306519;22;20011;-64
2023/06/05 01:23:09;;;;;;;6.47;5.85;;;19.10;99.90;;;;;;6306722;22;20425;-64
2023/06/05 01:25:36;;;;;;;6.72;6.13;;;19.10;99.90;;;;;;6307109;22;20080;-65
2023/06/05 01:28:19;;;;;;;6.55;5.90;;;19.10;99.90;;;;;;6306915;22;20003;-65
2023/06/05 01:31:01;;;;;;;7.00;6.40;;;19.00;99.90;;;;;;6306467;22;20019;-65
2023/06/05 01:33:33;;;;;;;6.60;6.00;;;19.00;99.90;;;;;;6306383;22;20004;-65
2023/06/05 01:36:04;;;;;;;6.60;6.03;;;19.00;99.90;;;;;;6278944;22;20086;-65
2023/06/05 01:38:32;;;;;;;6.65;6.05;;;19.00;99.90;;;;;;6306313;22;20074;-65
2023/06/05 01:40:59;;;;;;;6.75;6.10;;;18.90;99.90;;;;;;6306623;22;19999;-64
2023/06/05 01:43:24;;;;;;;6.60;6.00;;;18.90;99.90;;;;;;6305674;22;20025;-65
2023/06/05 01:45:51;;;;;;;6.28;5.68;;;18.90;99.90;;;;;;6306131;22;20074;-65
2023/06/05 01:48:17;;;;;;;6.53;5.93;;;18.90;99.90;;;;;;6306234;22;20010;-64
2023/06/05 01:50:43;;;;;;;7.25;6.00;;;18.80;99.90;;;;;;6306128;22;20052;-65
2023/06/05 01:53:11;;;;;;;6.20;5.70;;;18.80;99.90;;;;;;6305323;22;20003;-65
2023/06/05 01:55:38;;;;;;;6.97;6.25;;;18.70;99.90;;;;;;6305802;22;20015;-65
2023/06/05 01:58:05;;;;;;;7.13;6.43;;;18.60;99.90;;;;;;6305998;22;20007;-64
2023/06/05 02:00:30;;;;;;;6.78;6.25;;;18.60;99.90;;;;;;6306461;22;20064;-65
2023/06/05 02:02:56;;;;;;;7.43;6.30;;;18.60;99.90;;;;;;6305133;22;20433;-64
2023/06/05 02:05:23;;;;;;;7.03;6.30;;;18.60;99.90;;;;;;6306613;22;20079;-65
2023/06/05 02:07:53;;;;;;;7.05;6.53;;;18.50;99.90;;;;;;6306103;22;20029;-65
2023/06/05 02:10:19;;;;;;;6.90;6.03;;;18.50;99.90;;;;;;6306221;22;20004;-64
2023/06/05 02:12:46;;;;;;;7.65;6.90;;;18.50;99.90;;;;;;6305631;22;20025;-65
2023/06/05 02:15:13;;;;;;;6.85;6.35;;;18.50;99.90;;;;;;6306115;22;20006;-65
2023/06/05 02:17:44;;;;;;;6.97;6.38;;;18.40;99.90;;;;;;6305077;22;20082;-65
2023/06/05 02:20:12;;;;;;;7.25;6.65;;;18.40;99.90;;;;;;6306175;22;20015;-63
2023/06/05 02:22:39;;;;;;;6.90;6.28;;;18.40;99.90;;;;;;6305944;22;20033;-65
2023/06/05 02:25:05;;;;;;;8.00;6.22;;;18.40;99.90;;;;;;6306927;22;20003;-65
2023/06/05 02:27:31;;;;;;;7.45;6.85;;;18.40;99.90;;;;;;6305997;22;20010;-65
2023/06/05 02:29:56;;;;;;;7.45;6.85;;;18.40;99.90;;;;;;6305921;22;20038;-63
2023/06/05 02:32:25;;;;;;;7.78;7.10;;;18.30;99.90;;;;;;6306045;22;20007;-65
2023/06/05 02:34:52;;;;;;;8.10;7.40;;;18.30;99.90;;;;;;6305709;22;20004;-65
2023/06/05 02:37:18;;;;;;;8.55;7.75;;;18.20;99.90;;;;;;6306164;22;20503;-65
2023/06/05 02:39:45;;;;;;;9.00;7.70;;;18.20;99.90;;;;;;6305817;22;20015;-65
2023/06/05 02:42:12;;;;;;;7.88;7.13;;;18.20;99.90;;;;;;6306355;22;20018;-65
2023/06/05 02:44:38;;;;;;;8.40;7.70;;;18.20;99.90;;;;;;6306488;22;20425;-64
2023/06/05 02:47:04;;;;;;;9.10;7.85;;;18.20;99.90;;;;;;6305352;22;20026;-64
2023/06/05 02:49:29;;;;;;;8.50;7.90;;;18.20;99.90;;;;;;6305711;22;20460;-65
2023/06/05 02:51:55;;;;;;;9.80;8.90;;;18.10;99.90;;;;;;6305962;22;20003;-64
2023/06/05 02:54:21;;;;;;;9.90;9.00;;;18.10;99.90;;;;;;6305745;22;20011;-65
2023/06/05 02:56:47;;;;;;;10.70;9.80;;;18.10;99.90;;;;;;6306145;22;20006;-65
2023/06/05 02:59:14;;;;;;;11.02;10.07;;;18.00;99.90;;;;;;6305676;22;20046;-65
2023/06/05 03:01:46;;;;;;;11.25;10.38;;;18.00;99.90;;;;;;6305482;22;20011;-64
2023/06/05 03:04:14;;;;;;;10.52;9.60;;;17.90;99.90;;;;;;6305859;22;20007;-65
2023/06/05 03:06:43;;;;;;;10.93;10.00;;;17.90;99.90;;;;;;6305833;22;20493;-64
2023/06/05 03:09:09;;;;;;;10.55;9.65;;;17.90;99.90;;;;;;6305830;22;20453;-65
2023/06/05 03:11:34;;;;;;;11.90;11.02;;;17.90;99.90;;;;;;6305830;22;19999;-64
2023/06/05 03:14:00;;;;;;;11.20;10.27;;;17.90;99.90;;;;;;6305950;22;20349;-64
2023/06/05 03:16:32;;;;;;;10.70;9.85;;;17.90;99.90;;;;;;6305226;22;20333;-64
2023/06/05 03:18:58;;;;;;;11.88;10.90;;;17.90;99.90;;;;;;6305582;22;20011;-65
2023/06/05 03:21:24;;;;;;;12.10;11.15;;;17.80;99.90;;;;;;6305603;22;20000;-65
2023/06/05 03:23:49;;;;;;;12.60;11.60;;;17.80;99.90;;;;;;6305278;22;20006;-64
2023/06/05 03:26:15;;;;;;;12.20;11.20;;;17.80;99.90;;;;;;6305550;22;20006;-64
2023/06/05 03:28:42;;;;;;;11.90;10.90;;;17.70;99.90;;;;;;6305920;22;20033;-65
2023/06/05 03:31:10;;;;;;;11.60;10.70;;;17.70;99.90;;;;;;6305282;22;20094;-65
2023/06/05 03:33:35;;;;;;;13.07;11.98;;;17.60;99.90;;;;;;6305045;22;20006;-65
2023/06/05 03:36:01;;;;;;;11.63;10.73;;;17.60;99.90;;;;;;6304911;22;20000;-64
2023/06/05 03:38:27;;;;;;;11.23;10.27;;;17.60;99.90;;;;;;6305570;22;20051;-64
2023/06/05 03:40:53;;;;;;;11.88;10.88;;;17.60;99.90;;;;;;6305497;22;19999;-64
2023/06/05 03:43:19;;;;;;;11.30;10.40;;;17.60;99.90;;;;;;6305288;22;20099;-65
2023/06/05 03:45:45;;;;;;;10.93;10.10;;;17.70;99.90;;;;;;6304893;22;20308;-65
2023/06/05 03:48:11;;;;;;;10.40;9.57;;;17.70;99.90;;;;;;6305108;22;20030;-66
2023/06/05 03:50:41;;;;;;;11.32;10.32;;;17.70;99.90;;;;;;6305409;22;20011;-64
2023/06/05 03:53:08;;;;;;;11.43;10.27;;;17.70;99.90;;;;;;6305113;22;20003;-65
2023/06/05 03:55:46;;;;;;;11.52;10.45;;;17.70;99.90;;;;;;6305533;22;20002;-64
2023/06/05 03:58:14;;;;;;;11.10;10.20;;;17.60;99.90;;;;;;6305058;22;20124;-65
2023/06/05 04:00:45;;;;;;;12.00;10.98;;;17.60;99.90;;;;;;6304784;22;20403;-65
2023/06/05 04:03:12;;;;;;;10.70;9.80;;;17.50;99.90;;;;;;6305026;22;20010;-65
2023/06/05 04:05:39;;;;;;;11.65;10.73;;;17.40;99.90;;;;;;6304916;22;20075;-64
2023/06/05 04:08:11;;;;;;;12.68;11.38;;;17.50;99.90;;;;;;6305104;22;20023;-64
2023/06/05 04:10:37;;;;;;;11.00;10.10;;;17.40;99.90;;;;;;6305378;22;20013;-64
2023/06/05 04:13:04;;;;;;;11.60;10.60;;;17.40;99.90;;;;;;6304745;22;19995;-65
2023/06/05 04:15:30;;;;;;;11.77;10.75;;;17.50;99.90;;;;;;6305849;22;20003;-65
2023/06/05 04:17:56;;;;;;;11.48;10.55;;;17.40;99.90;;;;;;6304968;22;19999;-65
2023/06/05 04:20:22;;;;;;;10.68;9.85;;;17.40;99.90;;;;;;6304912;22;20007;-65
2023/06/05 04:22:47;;;;;;;11.30;10.43;;;17.40;99.90;;;;;;6305793;22;19999;-65
2023/06/05 04:25:14;;;;;;;11.35;10.43;;;17.40;99.90;;;;;;6305360;22;20011;-65
2023/06/05 04:27:41;;;;;;;11.80;10.70;;;17.30;99.90;;;;;;6305027;22;20403;-65
2023/06/05 04:30:08;;;;;;;11.75;10.60;;;17.30;99.90;;;;;;6304846;22;20442;-65
2023/06/05 04:32:37;;;;;;;12.52;11.43;;;17.30;99.90;;;;;;6304936;22;20007;-65
2023/06/05 04:35:03;;;;;;;11.80;10.90;;;17.30;99.90;;;;;;6306301;22;20003;-65
2023/06/05 04:37:29;;;;;;;11.60;10.70;;;17.30;99.90;;;;;;6306961;22;20000;-65
2023/06/05 04:39:55;;;;;;;12.02;10.90;;;17.30;99.90;;;;;;6307068;22;20018;-65
2023/06/05 04:42:21;;;;;;;12.38;11.27;;;17.30;99.90;;;;;;6306664;22;19999;-65
2023/06/05 04:44:58;;;;;;;11.90;10.85;;;17.30;99.90;;;;;;6307112;22;20007;-65
2023/06/05 04:47:24;;;;;;;11.68;10.70;;;17.30;99.90;;;;;;6307303;22;20646;-64
2023/06/05 04:49:51;;;;;;;12.23;11.23;;;17.30;99.90;;;;;;6307049;22;19999;-65
2023/06/05 04:52:18;;;;;;;12.85;11.70;;;17.30;99.90;;;;;;6307310;22;20003;-65
2023/06/05 04:54:43;;;;;;;12.60;11.50;;;17.20;99.90;;;;;;6307328;22;20480;-63
2023/06/05 04:57:10;;;;;;;13.02;11.80;;;17.20;99.90;;;;;;6306797;22;20007;-65
2023/06/05 04:59:36;;;;;;;12.40;11.38;;;17.20;99.90;;;;;;6306534;22;20468;-64
2023/06/05 05:02:03;;;;;;;13.07;11.88;;;17.20;99.90;;;;;;6306855;22;20438;-64
2023/06/05 05:04:29;;;;;;;13.18;12.07;;;17.20;99.90;;;;;;6306802;22;20066;-63
2023/06/05 05:07:01;;;;;;;13.13;12.02;;;17.20;99.90;;;;;;6306852;22;20603;-64
2023/06/05 05:09:31;;;;;;;13.13;11.93;;;17.30;99.90;;;;;;6306735;22;20014;-63
2023/06/05 05:11:58;;;;;;;13.70;12.63;;;17.30;99.90;;;;;;6306508;22;20000;-65
2023/06/05 05:14:27;;;;;;;13.68;12.45;;;17.30;99.90;;;;;;6306534;22;20003;-65
2023/06/05 05:16:53;;;;;;;12.95;11.75;;;17.30;99.90;;;;;;6307034;22;20052;-65
2023/06/05 05:19:19;;;;;;;12.68;11.60;;;17.30;99.90;;;;;;6306869;22;20011;-65
2023/06/05 05:21:48;;;;;;;12.30;11.20;;;17.40;99.90;;;;;;6306708;22;20023;-62
2023/06/05 05:24:14;;;;;;;12.43;11.43;;;17.40;99.90;;;;;;6306893;22;20464;-65
2023/06/05 05:26:40;;;;;;;13.13;12.13;;;17.40;99.90;;;;;;6279010;22;20442;-63
2023/06/05 05:29:06;;;;;;;12.57;11.57;;;17.40;99.90;;;;;;6306619;22;20061;-65
2023/06/05 05:31:32;;;;;;;16.58;15.13;;;17.40;99.90;;;;;;6306367;22;20454;-64
2023/06/05 05:33:58;;;;;;;18.25;16.65;;;17.50;99.90;;;;;;6306940;22;20018;-64
2023/06/05 05:36:25;;;;;;;18.52;16.92;;;17.40;99.90;;;;;;6306346;22;20007;-65
2023/06/05 05:38:51;;;;;;;18.52;16.92;;;17.50;99.90;;;;;;6306495;22;20038;-64
2023/06/05 05:41:16;;;;;;;19.25;17.55;;;17.50;99.90;;;;;;6306579;22;20481;-64
2023/06/05 05:43:42;;;;;;;19.13;17.63;;;17.40;99.90;;;;;;6306428;22;20426;-63
2023/06/05 05:46:08;;;;;;;17.33;15.93;;;17.40;99.90;;;;;;6306706;22;20010;-64
2023/06/05 05:48:37;;;;;;;18.25;16.75;;;17.40;99.90;;;;;;6306275;22;20002;-63
2023/06/05 05:51:05;;;;;;;18.70;17.20;;;17.40;99.90;;;;;;6306801;22;20014;-65
2023/06/05 05:53:30;;;;;;;17.83;16.40;;;17.40;99.90;;;;;;6307168;22;20380;-65
2023/06/05 05:55:56;;;;;;;18.92;17.23;;;17.40;99.90;;;;;;6306087;22;20075;-65
2023/06/05 05:58:22;;;;;;;17.80;16.40;;;17.40;99.90;;;;;;6278555;22;20054;-64
2023/06/05 06:00:48;;;;;;;18.48;16.63;;;17.40;99.90;;;;;;6306169;22;20035;-65
2023/06/05 06:03:14;;;;;;;18.40;16.85;;;17.40;99.90;;;;;;6306837;22;20338;-63
2023/06/05 06:05:40;;;;;;;18.48;17.00;;;17.50;99.90;;;;;;6306459;22;20027;-64
2023/06/05 06:08:06;;;;;;;18.90;17.17;;;17.50;99.90;;;;;;6306258;22;20026;-65
2023/06/05 06:10:32;;;;;;;18.00;16.42;;;17.50;99.90;;;;;;6305701;22;20477;-65
2023/06/05 06:12:59;;;;;;;18.27;16.73;;;17.60;99.90;;;;;;6306175;22;20039;-65
2023/06/05 06:15:25;;;;;;;17.25;15.85;;;17.60;99.90;;;;;;6306471;22;20082;-65
2023/06/05 06:17:50;;;;;;;16.30;15.00;;;17.60;99.90;;;;;;6306080;22;20010;-65
2023/06/05 06:20:16;;;;;;;16.58;15.00;;;17.70;99.90;;;;;;6305794;22;20015;-64
2023/06/05 06:22:42;;;;;;;17.90;16.10;;;17.70;99.90;;;;;;6306176;22;20000;-64
2023/06/05 06:25:11;;;;;;;17.98;16.35;;;17.80;99.90;;;;;;6305583;22;20458;-65
2023/06/05 06:27:38;;;;;;;17.27;15.80;;;17.80;99.90;;;;;;6305957;22;20438;-65
2023/06/05 06:30:05;;;;;;;17.25;15.95;;;17.90;99.90;;;;;;6305932;22;20057;-64
2023/06/05 06:32:30;;;;;;;17.33;15.80;;;17.90;99.90;;;;;;6278419;22;20026;-65
2023/06/05 06:34:56;;;;;;;16.40;15.07;;;17.90;99.90;;;;;;6306663;22;20003;-65
2023/06/05 06:37:23;;;;;;;16.90;15.50;;;18.00;99.90;;;;;;6306357;22;20007;-63
2023/06/05 06:39:49;;;;;;;15.43;14.23;;;18.00;99.90;;;;;;6305416;22;20011;-65
2023/06/05 06:42:15;;;;;;;14.70;13.40;;;18.00;99.90;;;;;;6305721;22;20010;-64
2023/06/05 06:44:41;;;;;;;14.90;13.55;;;18.10;99.90;;;;;;6305919;22;20007;-64
2023/06/05 06:47:08;;;;;;;14.20;12.85;;;18.10;99.90;;;;;;6305453;22;20033;-65
2023/06/05 06:49:37;;;;;;;13.27;12.07;;;18.20;99.90;;;;;;6306086;22;20330;-65
2023/06/05 06:52:03;;;;;;;13.02;12.02;;;18.20;99.90;;;;;;6306521;22;20004;-64
2023/06/05 06:54:28;;;;;;;13.05;11.75;;;18.20;99.90;;;;;;6305436;22;20335;-65
2023/06/05 06:56:59;;;;;;;12.32;11.32;;;18.30;99.90;;;;;;6305703;22;19999;-65
2023/06/05 06:59:24;;;;;;;11.35;10.27;;;18.30;99.90;;;;;;6305777;22;20015;-65
2023/06/05 07:02:13;;;;;;;10.23;9.43;;;18.30;99.90;;;;;;6306137;22;20464;-66
2023/06/05 07:04:41;;;;;;;11.07;8.82;;;18.40;99.90;;;;;;6306283;22;20014;-64
2023/06/05 07:07:10;;;;;;;10.43;9.43;;;18.40;99.90;;;;;;6305385;22;20006;-65
2023/06/05 07:09:36;;;;;;;10.73;9.50;;;18.40;99.90;;;;;;6305957;22;20011;-65
2023/06/05 07:12:05;;;;;;;10.55;9.05;;;18.40;99.90;;;;;;6305806;22;20025;-65
2023/06/05 07:14:33;;;;;;;10.88;9.68;;;18.50;99.90;;;;;;6306338;22;20080;-66
2023/06/05 07:16:59;;;;;;;11.13;10.05;;;18.50;99.90;;;;;;6306003;22;20026;-65
2023/06/05 07:19:27;;;;;;;11.48;10.20;;;18.60;99.90;;;;;;6305574;22;20019;-66
2023/06/05 07:21:53;;;;;;;11.73;10.68;;;18.60;99.90;;;;;;6304766;22;20027;-65
2023/06/05 07:24:18;;;;;;;12.55;11.35;;;18.70;99.90;;;;;;6305503;22;20315;-66
2023/06/05 07:26:44;;;;;;;12.00;10.95;;;18.90;99.90;;;;;;6305345;22;20021;-65
2023/06/05 07:29:11;;;;;;;12.25;11.13;;;18.90;99.90;;;;;;6304659;22;20037;-66
2023/06/05 07:31:38;;;;;;;12.48;11.38;;;19.00;99.90;;;;;;6305302;22;20358;-66
2023/06/05 07:34:04;;;;;;;13.18;11.77;;;19.00;99.90;;;;;;6305668;22;20010;-66
2023/06/05 07:36:30;;;;;;;13.18;11.88;;;19.10;99.90;;;;;;6304837;22;20377;-66
2023/06/05 07:38:56;;;;;;;12.77;11.32;;;19.10;99.90;;;;;;6305087;22;20003;-66
2023/06/05 07:41:22;;;;;;;13.52;12.05;;;19.20;99.90;;;;;;6305156;22;20008;-65
2023/06/05 07:43:47;;;;;;;12.38;10.45;;;19.30;99.90;;;;;;6305276;22;20006;-65
2023/06/05 07:46:14;;;;;;;11.60;10.35;;;19.30;99.90;;;;;;6305187;22;20029;-66
2023/06/05 07:48:40;;;;;;;11.02;9.93;;;19.40;99.90;;;;;;6305595;22;20070;-66
2023/06/05 07:51:08;;;;;;;11.20;10.10;;;19.50;99.90;;;;;;6304684;22;20003;-66
2023/06/05 07:53:34;;;;;;;13.48;10.80;;;19.60;99.90;;;;;;6305527;22;20006;-66
2023/06/05 07:55:59;;;;;;;13.65;12.23;;;19.70;99.90;;;;;;6305043;22;20003;-66
2023/06/05 07:58:27;;;;;;;13.73;12.20;;;19.70;99.90;;;;;;6305053;22;20011;-65
2023/06/05 08:00:53;;;;;;;13.93;12.50;;;19.80;99.90;;;;;;6304529;22;20392;-66
2023/06/05 08:03:22;;;;;;;15.27;12.82;;;19.80;99.90;;;;;;6304639;22;20434;-66
2023/06/05 08:05:48;;;;;;;14.90;11.73;;;19.80;99.90;;;;;;6305001;22;20011;-66
2023/06/05 08:08:14;;;;;;;16.63;11.68;;;19.80;99.90;;;;;;6305020;22;19999;-65
2023/06/05 08:10:40;;;;;;;13.35;11.65;;;19.90;99.90;;;;;;6304717;22;20007;-64
2023/06/05 08:13:08;;;;;;;13.55;11.18;;;19.90;99.90;;;;;;6305717;22;20075;-66
2023/06/05 08:15:33;;;;;;;12.23;10.80;;;20.00;99.90;;;;;;6305464;22;20014;-67
2023/06/05 08:17:59;;;;;;;11.15;9.98;;;20.10;99.90;;;;;;6305197;22;20000;-66
2023/06/05 08:20:25;;;;;;;14.75;10.18;;;20.20;99.90;;;;;;6304738;22;20018;-66
2023/06/05 08:22:51;;;;;;;14.07;10.45;;;20.30;99.90;;;;;;6305178;22;20350;-65
2023/06/05 08:25:16;;;;;;;15.43;10.95;;;20.40;99.90;;;;;;6305426;22;19999;-65
2023/06/05 08:27:42;;;;;;;15.48;13.55;;;20.50;99.90;;;;;;6305320;22;20000;-66
2023/06/05 08:30:08;;;;;;;19.35;14.07;;;20.50;99.90;;;;;;6305122;22;20222;-66
2023/06/05 08:32:34;;;;;;;15.23;12.65;;;20.50;99.90;;;;;;6305384;22;20048;-65
2023/06/05 08:35:00;;;;;;;14.40;11.43;;;20.60;99.90;;;;;;6304313;22;20003;-65
2023/06/05 08:37:28;;;;;;;15.15;12.55;;;20.70;99.90;;;;;;6305991;22;20082;-66
2023/06/05 08:39:54;;;;;;;15.07;12.43;;;20.70;99.90;;;;;;6304949;22;20426;-65
2023/06/05 08:42:20;;;;;;;17.02;13.43;;;20.80;99.90;;;;;;6304837;22;19999;-65
2023/06/05 08:44:49;;;;;;;17.67;13.15;;;20.80;99.90;;;;;;6305547;22;20003;-64
2023/06/05 08:47:15;;;;;;;17.88;13.80;;;20.80;99.90;;;;;;6304822;22;19995;-65
2023/06/05 08:49:41;;;;;;;17.33;13.50;;;20.90;99.90;;;;;;6304460;22;20074;-65
2023/06/05 08:52:08;;;;;;;15.43;12.60;;;20.90;99.90;;;;;;6305430;22;20009;-65
2023/06/05 08:54:41;;;;;;;13.77;11.90;;;21.00;99.90;;;;;;6305290;22;20010;-65
2023/06/05 08:57:07;;;;;;;14.60;12.50;;;21.20;99.90;;;;;;6305277;22;20007;-65
2023/06/05 08:59:33;;;;;;;14.10;11.13;;;21.30;99.90;;;;;;6304680;22;20018;-65
2023/06/05 09:02:00;;;;;;;15.43;11.40;;;21.30;99.90;;;;;;6304921;22;20434;-65
2023/06/05 09:04:29;;;;;;;13.93;11.10;;;21.30;99.90;;;;;;6304438;22;20008;-65
2023/06/05 09:06:56;;;;;;;12.43;10.73;;;21.40;99.90;;;;;;6304697;22;20617;-65
2023/06/05 09:09:22;;;;;;;11.48;10.13;;;21.40;99.90;;;;;;6305076;22;20011;-65
2023/06/05 09:12:08;;;;;;;11.10;9.30;;;21.50;99.90;;;;;;6305178;22;20438;-64
2023/06/05 09:14:35;;;;;;;10.52;8.57;;;21.50;99.90;;;;;;6305235;22;20330;-65
2023/06/05 09:17:02;;;;;;;8.18;7.30;;;21.60;99.90;;;;;;6305142;22;20066;-65
2023/06/05 09:19:38;;;;;;;8.20;6.75;;;21.60;99.90;;;;;;6304534;22;20015;-66
2023/06/05 09:22:06;;;;;;;7.47;6.72;;;21.60;99.90;;;;;;6306391;22;20040;-65
2023/06/05 09:24:32;;;;;;;7.32;6.22;;;21.60;99.90;;;;;;6306644;22;20003;-65
2023/06/05 09:27:00;;;;;;;7.68;5.75;;;21.60;99.90;;;;;;6306663;22;20006;-65
2023/06/05 09:29:35;;;;;;;5.72;5.10;;;21.60;99.90;;;;;;6306911;22;20078;-65
2023/06/05 09:32:02;;;;;;;5.95;4.55;;;21.60;99.90;;;;;;6301464;22;20339;-65
2023/06/05 09:34:30;;;;;;;4.18;3.70;;;21.60;99.90;;;;;;6307573;22;20011;-65
2023/06/05 09:37:01;;;;;;;4.25;3.70;;;21.70;99.90;;;;;;6306479;22;20012;-65
2023/06/05 09:39:28;;;;;;;4.35;3.95;;;21.70;99.90;;;;;;6306879;22;20346;-65
2023/06/05 09:41:55;;;;;;;5.88;3.80;;;21.80;99.90;;;;;;6306548;22;20003;-65
2023/06/05 09:44:22;;;;;;;4.50;4.10;;;21.80;99.90;;;;;;6305381;22;20011;-65
2023/06/05 09:46:58;;;;;;;4.93;4.00;;;21.80;99.90;;;;;;6306556;22;19999;-65
2023/06/05 09:49:48;;;;;;;5.07;4.00;;;21.80;99.90;;;;;;6306366;22;20010;-64
2023/06/05 09:52:14;;;;;;;5.97;3.60;;;21.90;99.90;;;;;;6306499;22;20434;-65
2023/06/05 09:54:44;;;;;;;5.53;3.97;;;22.00;99.90;;;;;;6306474;22;20006;-65
2023/06/05 09:57:11;;;;;;;3.08;2.78;;;22.00;99.90;;;;;;6306696;22;20003;-65
2023/06/05 09:59:53;;;;;;;3.70;2.55;;;22.10;99.90;;;;;;6306491;22;20130;-66
2023/06/05 10:02:21;;;;;;;3.85;2.60;;;22.10;99.90;;;;;;6305868;22;20003;-66
2023/06/05 10:04:56;;;;;;;3.25;2.90;;;22.20;99.90;;;;;;6306390;22;19996;-66
2023/06/05 10:07:23;;;;;;;3.75;3.05;;;22.20;99.90;;;;;;6306797;22;20003;-66
2023/06/05 10:09:50;;;;;;;3.53;3.17;;;22.20;99.90;;;;;;6306556;22;20387;-65
2023/06/05 10:12:16;;;;;;;3.80;3.25;;;22.20;99.90;;;;;;6306249;22;20345;-65
2023/06/05 10:14:43;;;;;;;3.45;3.15;;;22.30;99.90;;;;;;6306273;22;20058;-65
2023/06/05 10:17:13;;;;;;;3.55;3.20;;;22.50;99.90;;;;;;6305720;22;20053;-65
2023/06/05 10:19:43;;;;;;;3.80;3.40;;;22.60;99.90;;;;;;6305928;22;20011;-65
2023/06/05 10:22:12;;;;;;;3.13;2.83;;;22.70;99.90;;;;;;6305074;22;20345;-65
2023/06/05 10:24:44;;;;;;;3.67;3.00;;;22.80;99.90;;;;;;6306297;22;20486;-67
2023/06/05 10:27:09;;;;;;;3.60;2.78;;;22.90;99.90;;;;;;6306534;22;20003;-66
2023/06/05 10:29:56;;;;;;;3.20;2.78;;;22.90;99.90;;;;;;6306567;22;20010;-65
2023/06/05 10:32:28;;;;;;;3.03;2.75;;;23.00;99.90;;;;;;6305570;22;20035;-64
2023/06/05 10:35:32;;;;;;;3.03;2.67;;;23.00;99.90;;;;;;6306381;22;20379;-65
2023/06/05 10:38:01;;;;;;;2.40;2.20;;;23.30;99.90;;;;;;6290471;22;20662;-65
2023/06/05 10:40:27;;;;;;;2.90;2.60;;;23.40;99.90;;;;;;6306038;22;20433;-65
2023/06/05 10:42:53;;;;;;;4.13;2.65;;;23.40;99.90;;;;;;6306083;22;19995;-64
2023/06/05 10:45:34;;;;;;;3.20;2.95;;;23.40;99.90;;;;;;6305619;22;20006;-65
2023/06/05 10:48:00;;;;;;;4.05;2.90;;;23.40;99.90;;;;;;6306199;22;20009;-66
2023/06/05 10:50:27;;;;;;;3.75;3.45;;;23.40;99.90;;;;;;6306349;22;20450;-65
2023/06/05 10:52:55;;;;;;;3.63;3.30;;;23.40;99.90;;;;;;6306131;22;20030;-65
2023/06/05 10:55:22;;;;;;;3.63;3.33;;;23.40;99.90;;;;;;6306167;22;20007;-65
2023/06/05 10:58:06;;;;;;;3.80;3.40;;;23.60;99.90;;;;;;6305710;22;20003;-65
2023/06/05 11:00:32;;;;;;;;;;;23.70;99.90;;;;;;6306616;22;20015;-65
2023/06/05 11:02:58;;;;;;;3.95;3.10;;;23.80;99.90;;;;;;6306003;22;20283;-65
2023/06/05 11:05:26;;;;;;;3.13;2.80;;;23.80;99.90;;;;;;6303991;22;20133;-65
2023/06/05 11:08:13;;;;;;;5.10;3.42;;;24.00;99.90;;;;;;6306414;22;20000;-65
2023/06/05 11:11:05;;;;;;;3.35;3.05;;;24.10;99.90;;;;;;6306030;22;19999;-65
2023/06/05 11:13:56;;;;;;;3.90;3.50;;;24.10;99.90;;;;;;6305159;22;20104;-65
2023/06/05 11:16:33;;;;;;;3.72;3.42;;;24.20;99.90;;;;;;6305639;22;20076;-65
2023/06/05 11:19:20;;;;;;;3.60;3.30;;;24.20;99.90;;;;;;6305460;22;20358;-64
2023/06/05 11:22:09;;;;;;;4.00;3.60;;;24.20;99.90;;;;;;6305975;22;20005;-65
2023/06/05 11:24:36;;;;;;;4.00;3.60;;;24.20;99.90;;;;;;6305852;22;20003;-65
2023/06/05 11:27:05;;;;;;;4.05;3.65;;;24.20;99.90;;;;;;6305953;22;20021;-65
2023/06/05 11:29:31;;;;;;;4.22;3.83;;;24.30;99.90;;;;;;6305094;22;20346;-66
2023/06/05 11:31:58;;;;;;;4.63;3.95;;;24.40;99.90;;;;;;6305654;22;20093;-64
2023/06/05 11:34:23;;;;;;;4.43;3.85;;;24.50;99.90;;;;;;6305391;22;19999;-64
2023/06/05 11:36:49;;;;;;;4.63;4.22;;;24.60;99.90;;;;;;6305372;22;20052;-65
2023/06/05 11:39:15;;;;;;;4.75;3.70;;;24.60;99.90;;;;;;6305387;22;20019;-65
2023/06/05 11:41:45;;;;;;;3.85;3.50;;;24.70;99.90;;;;;;6305477;22;19999;-65
2023/06/05 11:44:12;;;;;;;3.78;3.47;;;24.70;99.90;;;;;;6305546;22;20025;-65
2023/06/05 11:46:39;;;;;;;3.95;3.35;;;24.80;99.90;;;;;;6305303;22;20422;-65
2023/06/05 11:49:05;;;;;;;3.55;3.25;;;24.90;99.90;;;;;;6305653;22;20007;-64
2023/06/05 11:51:35;;;;;;;4.00;3.70;;;25.00;99.90;;;;;;6305293;22;20030;-65
2023/06/05 11:54:05;;;;;;;4.05;3.75;;;25.00;99.90;;;;;;6305804;22;19999;-66
2023/06/05 11:56:32;;;;;;;3.80;3.50;;;25.00;99.90;;;;;;6305498;22;20342;-64
2023/06/05 11:58:58;;;;;;;4.53;3.50;;;25.10;99.90;;;;;;6304632;22;20007;-65
2023/06/05 12:01:31;;;;;;;4.68;3.60;;;25.10;99.90;;;;;;6305083;22;20006;-65
2023/06/05 12:04:06;;;;;;;3.65;3.35;;;25.20;99.90;;;;;;6305174;22;20007;-65
2023/06/05 12:06:34;;;;;;;6.07;3.30;;;25.30;99.90;;;;;;6305221;22;20052;-65
2023/06/05 12:09:14;;;;;;;3.80;3.22;;;25.40;99.90;;;;;;6305924;22;20007;-64
2023/06/05 12:11:40;;;;;;;4.30;2.90;;;25.40;99.90;;;;;;6304225;22;20518;-65
2023/06/05 12:14:06;;;;;;;3.65;3.35;;;25.40;99.90;;;;;;6305553;22;20308;-64
2023/06/05 12:16:36;;;;;;;4.35;3.42;;;25.60;99.90;;;;;;6305315;22;19995;-65
2023/06/05 12:19:10;;;;;;;4.35;3.60;;;25.60;99.90;;;;;;6305345;22;20018;-66
2023/06/05 12:21:36;;;;;;;3.70;3.40;;;25.60;99.90;;;;;;6305375;22;20007;-66
2023/06/05 12:24:02;;;;;;;5.65;3.97;;;25.70;99.90;;;;;;6305384;22;20066;-66
2023/06/05 12:26:33;;;;;;;3.58;3.38;;;25.60;99.90;;;;;;6304513;22;20027;-66
2023/06/05 12:29:06;;;;;;;51.75;10.43;;;25.60;99.90;;;;;;6304859;22;20422;-65
2023/06/05 12:31:39;;;;;;;11.02;6.10;;;25.80;99.90;;;;;;6305177;22;20090;-66
2023/06/05 12:34:05;;;;;;;6.32;4.50;;;26.00;99.90;;;;;;6305700;22;20003;-65
2023/06/05 12:36:37;;;;;;;5.20;4.70;;;26.10;99.90;;;;;;6305007;22;20007;-65
2023/06/05 12:39:05;;;;;;;5.15;4.32;;;26.20;99.90;;;;;;6304902;22;20392;-65
2023/06/05 12:41:31;;;;;;;4.82;4.43;;;26.30;99.90;;;;;;6304923;22;20014;-65
2023/06/05 12:44:04;;;;;;;5.15;4.65;;;26.40;99.90;;;;;;6304500;22;19999;-64